Center Hill Observed Data For Previous 48 Hours

Caption
Day and Hour Reservoir Elevation (behind dam)* Tailwater Elevation (below dam)* Average Hourly Discharge*
11/16/2017 1 AM CST 635.79 489.19 11,450
11/16/2017 2 AM CST 635.75 489.15 11,450
11/16/2017 3 AM CST 635.71 489.21 11,450
11/16/2017 4 AM CST 635.63 489.33 11,450
11/16/2017 5 AM CST 635.59 489.39 11,510
11/16/2017 6 AM CST 635.54 489.24 11,450
11/16/2017 7 AM CST 635.54 489.24 11,450
11/16/2017 8 AM CST 635.46 489.16 11,450
11/16/2017 9 AM CST 635.46 489.16 11,450
11/16/2017 10 AM CST 635.38 489.18 11,560
11/16/2017 11 AM CST 635.38 489.18 11,560
11/16/2017 12 PM CST 635.30 489.20 11,535
11/16/2017 1 PM CST 635.30 489.20 11,535
11/16/2017 2 PM CST 635.26 489.26 11,510
11/16/2017 3 PM CST 635.22 489.22 11,510
11/16/2017 4 PM CST 635.18 489.18 11,510
11/16/2017 5 PM CST 635.10 489.10 11,510
11/16/2017 6 PM CST 635.06 487.66 8,340
11/16/2017 7 PM CST 635.06 487.66 8,340
11/16/2017 8 PM CST 635.06 487.66 8,340
11/16/2017 9 PM CST 635.03 487.63 8,340
11/16/2017 10 PM CST 635.00 486.86 8,220
11/16/2017 11 PM CST 634.98 486.73 8,220
11/17/2017 12 AM CST 634.95 486.71 8,220
11/17/2017 1 AM CST 634.92 486.71 8,220
11/17/2017 2 AM CST 634.90 486.69 8,300
11/17/2017 3 AM CST 634.87 486.77 8,300
11/17/2017 4 AM CST 634.82 486.82 8,300
11/17/2017 5 AM CST 634.79 486.89 8,300
11/17/2017 6 AM CST 634.77 486.87 8,300
11/17/2017 7 AM CST 634.77 486.87 8,300
11/17/2017 8 AM CST 634.71 486.81 8,300
11/17/2017 9 AM CST 634.71 486.81 8,300
11/17/2017 10 AM CST 634.66 486.86 8,300
11/17/2017 11 AM CST 634.64 486.74 8,300
11/17/2017 12 PM CST 634.61 486.81 8,300
11/17/2017 1 PM CST 634.61 486.81 8,300
11/17/2017 2 PM CST 634.57 486.77 8,300
11/17/2017 3 PM CST 634.54 486.84 8,340
11/17/2017 4 PM CST 634.54 486.84 8,340
11/17/2017 5 PM CST 634.48 486.68 8,300
11/17/2017 6 PM CST 634.47 486.87 8,340
11/17/2017 7 PM CST 634.47 486.87 8,340
11/17/2017 8 PM CST 634.45 486.75 8,340
11/17/2017 9 PM CST 634.42 486.72 8,340
11/17/2017 10 PM CST 634.38 486.78 8,340
11/17/2017 11 PM CST 634.35 486.65 8,340
11/18/2017 12 AM CST 634.32 486.72 8,340
11/18/2017 1 AM CST 634.32 486.72 8,340
11/18/2017 2 AM CST 634.31 484.51 4,070
11/18/2017 3 AM CST 634.31 483.71 4,040
11/18/2017 4 AM CST 634.28 483.31 4,020
11/18/2017 5 AM CST 634.28 483.18 4,020
11/18/2017 6 AM CST 634.27 483.17 4,020
11/18/2017 7 AM CST 634.27 483.17 4,020
11/18/2017 8 AM CST 634.23 483.03 4,020
11/18/2017 9 AM CST 634.24 483.04 4,020

Elevations are in feet above sea level. Discharges are in cubic feet per second and are reported at the end of the hour.